createdAt,value
2022-12-14T00:00:33.259Z,97579.84
2022-12-14T00:01:36.774Z,97577.19
2022-12-14T00:02:42.865Z,97574.69
2022-12-14T00:03:50.281Z,97571.78
2022-12-14T00:04:53.668Z,97577.28
2022-12-14T00:06:03.117Z,97575.00
2022-12-14T00:07:07.877Z,97580.75
2022-12-14T00:08:15.545Z,97584.44
2022-12-14T00:09:21.455Z,97586.03
2022-12-14T00:10:25.640Z,97577.81
2022-12-14T00:11:35.250Z,97584.16
2022-12-14T00:12:41.222Z,97580.88
2022-12-14T00:13:44.919Z,97574.25
2022-12-14T00:14:55.183Z,97581.03
2022-12-14T00:15:59.258Z,97578.56
2022-12-14T00:17:06.006Z,97580.94
2022-12-14T00:18:11.713Z,97583.72
2022-12-14T00:19:17.697Z,97582.63
2022-12-14T00:20:21.187Z,97579.00
2022-12-14T00:21:31.169Z,97575.59
2022-12-14T00:22:35.326Z,97578.94
2022-12-14T00:23:43.338Z,97576.34
2022-12-14T00:24:46.810Z,97582.53
2022-12-14T00:25:52.838Z,97580.06
2022-12-14T00:26:56.137Z,97574.13
2022-12-14T00:28:03.077Z,97578.16
2022-12-14T00:29:06.418Z,97584.53
2022-12-14T00:30:14.703Z,97558.34
2022-12-14T00:31:18.360Z,97573.63
2022-12-14T00:32:26.547Z,97578.69
2022-12-14T00:33:31.135Z,97568.72
2022-12-14T00:34:37.262Z,97575.59
2022-12-14T00:35:40.641Z,97566.28
2022-12-14T00:36:49.163Z,97555.09
2022-12-14T00:37:52.545Z,97575.38
2022-12-14T00:38:59.351Z,97565.44
2022-12-14T00:40:02.724Z,97579.78
2022-12-14T00:41:10.070Z,97569.63
2022-12-14T00:42:13.419Z,97575.69
2022-12-14T00:43:19.407Z,97575.88
2022-12-14T00:44:26.430Z,97572.63
2022-12-14T00:45:29.795Z,97572.63
2022-12-14T00:46:35.819Z,97570.03
2022-12-14T00:47:40.975Z,97563.28
2022-12-14T00:48:47.262Z,97548.28
2022-12-14T00:49:53.655Z,97563.06
2022-12-14T00:51:00.095Z,97569.50
2022-12-14T00:52:08.912Z,97564.75
2022-12-14T00:53:12.702Z,97567.56
2022-12-14T00:54:19.131Z,97572.03
2022-12-14T00:55:23.422Z,97576.47
2022-12-14T00:56:29.505Z,97573.94
2022-12-14T00:57:32.820Z,97572.22
2022-12-14T00:58:39.128Z,97572.81
2022-12-14T00:59:43.327Z,97571.19
2022-12-14T01:01:02.356Z,97567.69
2022-12-14T01:02:06.359Z,97568.47
2022-12-14T01:03:13.905Z,97577.88
2022-12-14T01:04:22.619Z,97566.19
2022-12-14T01:05:29.076Z,97566.19
2022-12-14T01:06:33.182Z,97564.31
2022-12-14T01:07:41.771Z,97559.09
2022-12-14T01:08:45.210Z,97558.97
2022-12-14T01:09:51.177Z,97560.38
2022-12-14T01:10:54.753Z,97565.25
2022-12-14T01:12:01.575Z,97560.81
2022-12-14T01:13:04.859Z,97549.41
2022-12-14T01:14:12.280Z,97553.44
2022-12-14T01:15:15.636Z,97552.47
2022-12-14T01:16:21.663Z,97551.41
2022-12-14T01:17:28.615Z,97560.50
2022-12-14T01:18:35.472Z,97563.56
2022-12-14T01:19:41.617Z,97554.97
2022-12-14T01:20:45.060Z,97550.94
2022-12-14T01:21:51.071Z,97546.03
2022-12-14T01:22:58.060Z,97543.38
2022-12-14T01:24:06.702Z,97543.44
2022-12-14T01:25:10.291Z,97534.06
2022-12-14T01:26:17.997Z,97540.53
2022-12-14T01:27:21.520Z,97539.56
2022-12-14T01:28:28.513Z,97526.75
2022-12-14T01:29:34.515Z,97541.84
2022-12-14T01:30:40.508Z,97535.66
2022-12-14T01:31:48.621Z,97536.28
2022-12-14T01:32:53.050Z,97533.44
2022-12-14T01:34:00.959Z,97534.19
2022-12-14T01:35:05.305Z,97528.75
2022-12-14T01:36:14.800Z,97524.56
2022-12-14T01:37:18.178Z,97529.19
2022-12-14T01:38:26.860Z,97515.47
2022-12-14T01:39:34.208Z,97523.94
2022-12-14T01:40:38.044Z,97524.09
2022-12-14T01:41:47.541Z,97526.53
2022-12-14T01:42:50.967Z,97529.81
2022-12-14T01:44:00.272Z,97523.66
2022-12-14T01:45:07.455Z,97529.69
2022-12-14T01:46:13.565Z,97531.53
2022-12-14T01:47:31.788Z,97521.31
2022-12-14T01:48:35.270Z,97527.44
2022-12-14T01:49:52.021Z,97519.91
2022-12-14T01:50:56.387Z,97523.13
2022-12-14T01:52:12.657Z,97525.84
2022-12-14T01:53:28.978Z,97522.00
2022-12-14T01:54:41.073Z,97525.19
2022-12-14T01:55:55.022Z,97523.72
2022-12-14T01:57:00.093Z,97527.53
2022-12-14T01:58:14.356Z,97528.56
2022-12-14T01:59:26.831Z,97520.78
2022-12-14T02:00:33.342Z,97522.16
2022-12-14T02:01:37.674Z,97524.34
2022-12-14T02:02:51.344Z,97529.50
2022-12-14T02:03:55.303Z,97516.25
2022-12-14T02:05:08.953Z,97527.44
2022-12-14T02:06:20.137Z,97532.00
2022-12-14T02:07:30.876Z,97523.44
2022-12-14T02:08:47.059Z,97528.34
2022-12-14T02:09:54.135Z,97521.72
2022-12-14T02:11:02.902Z,97524.75
2022-12-14T02:12:15.357Z,97515.19
2022-12-14T02:13:29.205Z,97510.59
2022-12-14T02:14:34.506Z,97505.81
2022-12-14T02:15:42.620Z,97490.31
2022-12-14T02:16:46.217Z,97514.38
2022-12-14T02:17:53.119Z,97513.41
2022-12-14T02:18:56.505Z,97513.72
2022-12-14T02:20:02.906Z,97513.47
2022-12-14T02:21:35.435Z,97504.91
2022-12-14T02:23:35.491Z,97509.47
2022-12-14T02:25:20.553Z,97513.28
2022-12-14T02:27:00.255Z,97512.50
2022-12-14T02:28:56.612Z,97503.97
2022-12-14T02:30:08.966Z,97509.72
2022-12-14T02:31:28.884Z,97512.59
2022-12-14T02:33:04.998Z,97509.94
2022-12-14T02:34:24.868Z,97499.47
2022-12-14T02:35:49.764Z,97497.69
2022-12-14T02:37:04.566Z,97502.06
2022-12-14T02:38:34.839Z,97497.00
2022-12-14T02:40:00.595Z,97497.31
2022-12-14T02:41:20.260Z,97497.16
2022-12-14T02:42:40.323Z,97493.03
2022-12-14T02:44:07.291Z,97494.94
2022-12-14T02:45:27.584Z,97488.81
2022-12-14T02:46:50.560Z,97488.81
2022-12-14T02:48:03.513Z,97471.50
2022-12-14T02:49:19.276Z,97482.22
2022-12-14T02:50:34.336Z,97480.41
2022-12-14T02:51:59.162Z,97468.44
2022-12-14T02:53:16.119Z,97476.88
2022-12-14T02:54:34.627Z,97472.44
2022-12-14T02:55:50.397Z,97481.34
2022-12-14T02:57:12.264Z,97479.56
2022-12-14T02:58:24.663Z,97479.69
2022-12-14T02:59:31.839Z,97476.28
2022-12-14T03:00:39.408Z,97479.16
2022-12-14T03:01:47.970Z,97474.28
2022-12-14T03:02:54.130Z,97483.78
2022-12-14T03:04:00.373Z,97480.06
2022-12-14T03:05:05.163Z,97483.78
2022-12-14T03:06:26.437Z,97486.69
2022-12-14T03:07:45.721Z,97471.81
2022-12-14T03:09:04.171Z,97477.63
2022-12-14T03:10:35.832Z,97445.75
2022-12-14T03:11:56.386Z,97468.88
2022-12-14T03:13:18.825Z,97488.19
2022-12-14T03:14:31.922Z,97486.88
2022-12-14T03:15:48.459Z,97487.53
2022-12-14T03:16:57.578Z,97477.13
2022-12-14T03:18:10.121Z,97480.44
2022-12-14T03:19:23.539Z,97469.91
2022-12-14T03:20:37.102Z,97474.34
2022-12-14T03:21:51.880Z,97471.81
2022-12-14T03:23:04.005Z,97464.63
2022-12-14T03:24:19.315Z,97468.81
2022-12-14T03:25:38.119Z,97467.84
2022-12-14T03:26:53.753Z,97464.28
2022-12-14T03:28:10.186Z,97455.66
2022-12-14T03:29:23.130Z,97464.84
2022-12-14T03:30:58.698Z,97467.22
2022-12-14T03:32:06.987Z,97461.94
2022-12-14T03:33:19.634Z,97467.00
2022-12-14T03:34:34.690Z,97463.56
2022-12-14T03:35:47.183Z,97466.03
2022-12-14T03:37:03.359Z,97465.81
2022-12-14T03:38:19.943Z,97469.44
2022-12-14T03:39:36.546Z,97462.41
2022-12-14T03:40:51.136Z,97466.06
2022-12-14T03:42:13.670Z,97461.94
2022-12-14T03:43:34.399Z,97458.88
2022-12-14T03:44:50.295Z,97459.81
2022-12-14T03:46:10.315Z,97464.84
2022-12-14T03:47:46.915Z,97462.91
2022-12-14T03:48:56.853Z,97458.22
2022-12-14T03:50:11.618Z,97464.53
2022-12-14T03:51:33.746Z,97466.72
2022-12-14T03:52:46.876Z,97463.34
2022-12-14T03:54:09.858Z,97464.97
2022-12-14T03:55:33.374Z,97457.97
2022-12-14T03:56:53.057Z,97468.78
2022-12-14T03:58:26.641Z,97468.69
2022-12-14T03:59:50.007Z,97463.88
2022-12-14T04:01:07.036Z,97464.78
2022-12-14T04:02:29.369Z,97465.56
2022-12-14T04:03:56.670Z,97461.56
2022-12-14T04:05:12.805Z,97466.66
2022-12-14T04:06:32.359Z,97464.84
2022-12-14T04:07:48.595Z,97453.03
2022-12-14T04:09:07.309Z,97464.13
2022-12-14T04:10:35.138Z,97458.88
2022-12-14T04:12:06.501Z,97461.56
2022-12-14T04:13:33.262Z,97469.28
2022-12-14T04:15:02.815Z,97459.81
2022-12-14T04:16:30.841Z,97459.50
2022-12-14T04:17:57.954Z,97451.88
2022-12-14T04:19:15.969Z,97447.69
2022-12-14T04:20:31.188Z,97448.56
2022-12-14T04:21:44.929Z,97449.75
2022-12-14T04:23:02.439Z,97447.09
2022-12-14T04:24:35.941Z,97448.97
2022-12-14T04:26:02.554Z,97448.78
2022-12-14T04:27:21.752Z,97445.69
2022-12-14T04:28:50.752Z,97446.50
2022-12-14T04:30:03.726Z,97440.16
2022-12-14T04:31:15.349Z,97442.22
2022-12-14T04:32:30.960Z,97444.34
2022-12-14T04:33:47.655Z,97433.16
2022-12-14T04:35:03.989Z,97434.91
2022-12-14T04:36:08.564Z,97419.38
2022-12-14T04:37:22.904Z,97427.09
2022-12-14T04:38:37.708Z,97431.34
2022-12-14T04:39:54.828Z,97428.47
2022-12-14T04:41:10.621Z,97427.38
2022-12-14T04:42:21.801Z,97424.47
2022-12-14T04:43:34.905Z,97421.28
2022-12-14T04:44:46.760Z,97428.53
2022-12-14T04:46:02.471Z,97425.13
2022-12-14T04:47:17.578Z,97413.25
2022-12-14T04:48:37.166Z,97417.47
2022-12-14T04:49:56.555Z,97412.97
2022-12-14T04:51:17.623Z,97412.22
2022-12-14T04:52:36.458Z,97403.25
2022-12-14T04:53:50.685Z,97407.13
2022-12-14T04:55:06.011Z,97404.84
2022-12-14T04:56:23.734Z,97399.84
2022-12-14T04:57:40.798Z,97399.84
2022-12-14T04:58:44.802Z,97405.13
2022-12-14T04:59:53.482Z,97395.66
2022-12-14T05:01:22.778Z,97394.69
2022-12-14T05:03:00.185Z,97390.03
2022-12-14T05:04:19.249Z,97395.16
2022-12-14T05:05:39.767Z,97388.28
2022-12-14T05:07:07.729Z,97385.03
2022-12-14T05:08:26.682Z,97386.25
2022-12-14T05:09:42.296Z,97385.47
2022-12-14T05:11:14.955Z,97381.31
2022-12-14T05:12:34.185Z,97376.41
2022-12-14T05:13:48.948Z,97372.19
2022-12-14T05:15:09.424Z,97367.81
2022-12-14T05:16:20.482Z,97373.72
2022-12-14T05:17:27.459Z,97374.56
2022-12-14T05:18:36.669Z,97378.59
2022-12-14T05:19:49.130Z,97372.53
2022-12-14T05:20:55.100Z,97375.13
2022-12-14T05:22:10.839Z,97371.78
2022-12-14T05:23:16.615Z,97368.22
2022-12-14T05:24:22.524Z,97371.84
2022-12-14T05:25:28.640Z,97365.03
2022-12-14T05:26:32.648Z,97377.00
2022-12-14T05:27:38.610Z,97376.09
2022-12-14T05:28:45.924Z,97371.03
2022-12-14T05:29:58.432Z,97369.19
2022-12-14T05:31:01.905Z,97369.19
2022-12-14T05:32:07.951Z,97373.47
2022-12-14T05:33:19.571Z,97369.34
2022-12-14T05:34:27.012Z,97365.88
2022-12-14T05:35:30.473Z,97362.13
2022-12-14T05:36:39.017Z,97366.63
2022-12-14T05:37:45.448Z,97362.44
2022-12-14T05:38:52.733Z,97369.97
2022-12-14T05:39:59.358Z,97376.03
2022-12-14T05:41:02.746Z,97371.44
2022-12-14T05:42:10.547Z,97376.53
2022-12-14T05:43:14.261Z,97378.03
2022-12-14T05:44:20.167Z,97377.16
2022-12-14T05:45:24.416Z,97375.47
2022-12-14T05:46:30.435Z,97374.84
2022-12-14T05:47:33.847Z,97379.72
2022-12-14T05:48:39.690Z,97356.28
2022-12-14T05:49:45.712Z,97372.66
2022-12-14T05:50:54.031Z,97375.06
2022-12-14T05:52:02.839Z,97376.94
2022-12-14T05:53:06.239Z,97373.47
2022-12-14T05:54:12.264Z,97381.09
2022-12-14T05:55:17.220Z,97374.31
2022-12-14T05:56:24.129Z,97383.63
2022-12-14T05:57:30.018Z,97379.03
2022-12-14T05:58:34.257Z,97379.03
2022-12-14T05:59:40.280Z,97377.06
2022-12-14T06:00:43.586Z,97386.06
2022-12-14T06:01:53.248Z,97372.06
2022-12-14T06:02:56.606Z,97377.31
2022-12-14T06:04:02.686Z,97374.72
2022-12-14T06:05:07.181Z,97357.75
2022-12-14T06:06:16.594Z,97384.53
2022-12-14T06:07:27.713Z,97378.63
2022-12-14T06:08:38.581Z,97371.72
2022-12-14T06:09:44.454Z,97377.78
2022-12-14T06:10:47.688Z,97363.47
2022-12-14T06:11:53.861Z,97369.59
2022-12-14T06:12:58.182Z,97366.09
2022-12-14T06:14:04.153Z,97351.19
2022-12-14T06:15:09.038Z,97370.22
2022-12-14T06:16:19.147Z,97364.59
2022-12-14T06:17:22.456Z,97361.84
2022-12-14T06:18:29.172Z,97364.50
2022-12-14T06:19:35.071Z,97369.59
2022-12-14T06:20:38.412Z,97373.03
2022-12-14T06:21:46.856Z,97367.34
2022-12-14T06:22:55.270Z,97360.41
2022-12-14T06:24:03.352Z,97335.59
2022-12-14T06:25:08.774Z,97354.88
2022-12-14T06:26:15.979Z,97359.78
2022-12-14T06:27:21.924Z,97359.16
2022-12-14T06:28:26.317Z,97354.81
2022-12-14T06:29:33.595Z,97352.41
2022-12-14T06:30:36.973Z,97341.88
2022-12-14T06:31:43.032Z,97343.56
2022-12-14T06:32:46.513Z,97339.88
2022-12-14T06:33:53.482Z,97329.25
2022-12-14T06:35:00.259Z,97344.34
2022-12-14T06:36:04.604Z,97341.69
2022-12-14T06:37:10.813Z,97337.34
2022-12-14T06:38:18.189Z,97335.25
2022-12-14T06:39:24.245Z,97338.28
2022-12-14T06:40:28.418Z,97330.56
2022-12-14T06:41:34.838Z,97342.66
2022-12-14T06:42:40.744Z,97339.81
2022-12-14T06:43:49.353Z,97348.56
2022-12-14T06:44:55.767Z,97342.97
2022-12-14T06:46:00.104Z,97342.09
2022-12-14T06:47:06.133Z,97340.22
2022-12-14T06:48:10.043Z,97343.84
2022-12-14T06:49:19.806Z,97342.09
2022-12-14T06:50:23.213Z,97341.66
2022-12-14T06:51:30.074Z,97341.75
2022-12-14T06:52:37.743Z,97341.75
2022-12-14T06:53:43.861Z,97338.22
2022-12-14T06:54:50.816Z,97335.41
2022-12-14T06:55:54.111Z,97336.81
2022-12-14T06:57:00.927Z,97335.97
2022-12-14T06:58:04.509Z,97333.53
2022-12-14T06:59:11.575Z,97330.88
2022-12-14T07:00:18.553Z,97341.47
2022-12-14T07:01:29.035Z,97326.81
2022-12-14T07:02:36.169Z,97323.50
2022-12-14T07:03:43.759Z,97330.00
2022-12-14T07:04:49.624Z,97332.22
2022-12-14T07:05:57.529Z,97330.50
2022-12-14T07:07:03.398Z,97327.69
2022-12-14T07:08:07.584Z,97323.16
2022-12-14T07:09:18.296Z,97321.31
2022-12-14T07:10:24.364Z,97317.88
2022-12-14T07:11:33.499Z,97313.78
2022-12-14T07:12:37.477Z,97317.25
2022-12-14T07:13:45.212Z,97327.28
2022-12-14T07:14:54.895Z,97316.84
2022-12-14T07:16:00.378Z,97322.81
2022-12-14T07:17:07.547Z,97316.53
2022-12-14T07:18:11.026Z,97312.84
2022-12-14T07:19:18.322Z,97316.88
2022-12-14T07:20:24.392Z,97304.28
2022-12-14T07:21:30.532Z,97310.97
2022-12-14T07:22:37.344Z,97301.56
2022-12-14T07:23:43.157Z,97311.34
2022-12-14T07:24:53.274Z,97301.75
2022-12-14T07:26:02.732Z,97299.78
2022-12-14T07:27:09.444Z,97309.94
2022-12-14T07:28:12.702Z,97295.31
2022-12-14T07:29:18.864Z,97300.09
2022-12-14T07:30:23.125Z,97302.53
2022-12-14T07:31:31.700Z,97299.66
2022-12-14T07:32:37.732Z,97311.41
2022-12-14T07:33:41.117Z,97308.44
2022-12-14T07:34:47.041Z,97310.91
2022-12-14T07:35:51.672Z,97306.41
2022-12-14T07:36:58.534Z,97300.19
2022-12-14T07:38:04.565Z,97301.47
2022-12-14T07:39:10.968Z,97303.91
2022-12-14T07:40:20.074Z,97297.72
2022-12-14T07:41:27.118Z,97300.91
2022-12-14T07:42:33.291Z,97308.13
2022-12-14T07:43:36.875Z,97306.13
2022-12-14T07:44:42.844Z,97299.16
2022-12-14T07:45:46.191Z,97299.66
2022-12-14T07:46:53.378Z,97300.25
2022-12-14T07:47:59.329Z,97298.56
2022-12-14T07:49:06.813Z,97307.06
2022-12-14T07:50:13.508Z,97304.41
2022-12-14T07:51:23.943Z,97302.28
2022-12-14T07:52:37.152Z,97308.75
2022-12-14T07:53:45.390Z,97303.59
2022-12-14T07:54:52.662Z,97301.50
2022-12-14T07:56:05.599Z,97299.59
2022-12-14T07:57:11.457Z,97302.00
2022-12-14T07:58:16.070Z,97297.78
2022-12-14T07:59:22.472Z,97297.78
2022-12-14T08:00:25.956Z,97300.38
2022-12-14T08:01:34.632Z,97292.47
2022-12-14T08:02:40.681Z,97295.25
2022-12-14T08:03:51.075Z,97294.66
2022-12-14T08:04:57.117Z,97305.44
2022-12-14T08:06:04.541Z,97296.97
2022-12-14T08:07:10.394Z,97295.56
2022-12-14T08:08:14.112Z,97299.75
2022-12-14T08:09:21.215Z,97303.00
2022-12-14T08:10:25.213Z,97302.66
2022-12-14T08:11:33.876Z,97300.06
2022-12-14T08:12:40.333Z,97300.38
2022-12-14T08:13:44.055Z,97302.41
2022-12-14T08:14:52.122Z,97291.56
2022-12-14T08:15:58.486Z,97301.25
2022-12-14T08:17:05.489Z,97305.16
2022-12-14T08:18:11.397Z,97291.09
2022-12-14T08:19:15.292Z,97293.09
2022-12-14T08:20:22.058Z,97299.00
2022-12-14T08:21:29.882Z,97297.69
2022-12-14T08:22:35.926Z,97294.94
2022-12-14T08:23:43.392Z,97278.75
2022-12-14T08:24:49.406Z,97297.56
2022-12-14T08:25:55.371Z,97294.09
2022-12-14T08:27:03.925Z,97295.31
2022-12-14T08:28:07.336Z,97290.81
2022-12-14T08:29:15.584Z,97292.91
2022-12-14T08:30:21.680Z,97294.19
2022-12-14T08:31:30.917Z,97293.78
2022-12-14T08:32:37.142Z,97299.03
2022-12-14T08:33:45.340Z,97291.75
2022-12-14T08:34:52.623Z,97306.78
2022-12-14T08:35:55.976Z,97301.06
2022-12-14T08:37:02.827Z,97306.03
2022-12-14T08:38:06.191Z,97306.78
2022-12-14T08:39:14.207Z,97298.47
2022-12-14T08:40:17.596Z,97298.59
2022-12-14T08:41:23.842Z,97288.75
2022-12-14T08:42:36.295Z,97291.09
2022-12-14T08:43:45.368Z,97294.03
2022-12-14T08:44:51.302Z,97300.50
2022-12-14T08:45:55.862Z,97298.53
2022-12-14T08:47:01.978Z,97290.97
2022-12-14T08:48:06.792Z,97304.72
2022-12-14T08:49:14.248Z,97302.13
2022-12-14T08:50:20.681Z,97298.78
2022-12-14T08:51:29.236Z,97304.88
2022-12-14T08:52:35.291Z,97306.00
2022-12-14T08:53:43.413Z,97318.03
2022-12-14T08:54:49.420Z,97307.63
2022-12-14T08:55:53.085Z,97310.66
2022-12-14T08:56:58.964Z,97309.72
2022-12-14T08:58:07.488Z,97306.41
2022-12-14T08:59:30.237Z,97297.53
2022-12-14T09:00:41.996Z,97300.13
2022-12-14T09:01:48.508Z,97292.66
2022-12-14T09:02:52.585Z,97293.09
2022-12-14T09:03:58.778Z,97297.66
2022-12-14T09:05:06.139Z,97285.91
2022-12-14T09:06:17.370Z,97281.09
2022-12-14T09:07:23.362Z,97278.78
2022-12-14T09:08:30.383Z,97287.19
2022-12-14T09:09:38.694Z,97285.59
2022-12-14T09:10:51.972Z,97280.97
2022-12-14T09:11:57.998Z,97287.97
2022-12-14T09:13:04.006Z,97274.91
2022-12-14T09:14:09.885Z,97276.25
2022-12-14T09:15:15.891Z,97269.38
2022-12-14T09:16:26.511Z,97279.78
2022-12-14T09:17:32.920Z,97269.09
2022-12-14T09:18:39.042Z,97276.19
2022-12-14T09:19:45.169Z,97282.75
2022-12-14T09:20:51.868Z,97285.53
2022-12-14T09:21:59.477Z,97285.94
2022-12-14T09:23:05.510Z,97276.94
2022-12-14T09:24:13.293Z,97286.16
2022-12-14T09:25:16.919Z,97289.19
2022-12-14T09:26:26.199Z,97280.34
2022-12-14T09:27:33.788Z,97286.91
2022-12-14T09:28:45.206Z,97278.38
2022-12-14T09:29:51.320Z,97273.75
2022-12-14T09:31:02.317Z,97269.88
2022-12-14T09:32:09.296Z,97272.88
2022-12-14T09:33:13.566Z,97263.03
2022-12-14T09:34:19.617Z,97263.72
2022-12-14T09:35:25.657Z,97257.72
2022-12-14T09:36:32.383Z,97266.91
2022-12-14T09:37:39.252Z,97267.28
2022-12-14T09:38:51.572Z,97270.78
2022-12-14T09:39:58.246Z,97256.44
2022-12-14T09:41:07.665Z,97258.53
2022-12-14T09:42:50.523Z,97269.97
2022-12-14T09:44:18.734Z,97271.78
2022-12-14T09:45:35.680Z,97242.84
2022-12-14T09:47:01.986Z,97266.75
2022-12-14T09:48:20.522Z,97262.50
2022-12-14T09:49:35.331Z,97257.66
2022-12-14T09:50:43.771Z,97265.13
2022-12-14T09:51:47.419Z,97255.03
2022-12-14T09:52:59.167Z,97251.53
2022-12-14T09:54:13.928Z,97256.41
2022-12-14T09:55:27.416Z,97258.53
2022-12-14T09:56:36.946Z,97259.63
2022-12-14T09:57:48.092Z,97255.69
2022-12-14T09:59:02.387Z,97251.03
2022-12-14T10:00:18.306Z,97248.59
2022-12-14T10:03:54.865Z,97255.28
2022-12-14T10:05:35.477Z,97251.53
2022-12-14T10:06:55.609Z,97240.66
2022-12-14T10:08:11.896Z,97240.41
2022-12-14T10:09:32.729Z,97240.69
2022-12-14T10:10:53.787Z,97237.75
2022-12-14T10:12:26.315Z,97232.56
2022-12-14T10:13:59.318Z,97237.03
2022-12-14T10:15:27.802Z,97237.09
2022-12-14T10:16:52.088Z,97216.13
2022-12-14T10:19:02.028Z,97236.38
2022-12-14T10:20:25.226Z,97243.47
2022-12-14T10:21:47.128Z,97235.56
2022-12-14T10:22:56.509Z,97235.34
2022-12-14T10:24:06.734Z,97230.50
2022-12-14T10:25:21.756Z,97232.06
2022-12-14T10:26:39.240Z,97228.53
2022-12-14T10:28:12.492Z,97233.50
2022-12-14T10:29:34.633Z,97235.41
2022-12-14T10:30:46.879Z,97225.56
2022-12-14T10:32:08.077Z,97221.31
2022-12-14T10:33:27.823Z,97218.81
2022-12-14T10:34:35.087Z,97217.91
2022-12-14T10:35:53.149Z,97210.50
2022-12-14T10:37:23.851Z,97213.09
2022-12-14T10:38:44.459Z,97204.28
2022-12-14T10:40:33.545Z,97198.16
2022-12-14T10:41:53.246Z,97193.81
2022-12-14T10:43:46.362Z,97192.38
2022-12-14T10:45:39.865Z,97189.59
2022-12-14T10:47:00.134Z,97202.72
2022-12-14T10:48:40.004Z,97199.59
2022-12-14T10:50:00.880Z,97178.94
2022-12-14T10:51:14.023Z,97180.31
2022-12-14T10:52:26.595Z,97176.06
2022-12-14T10:53:44.205Z,97157.69
2022-12-14T10:54:57.754Z,97171.81
2022-12-14T10:56:15.316Z,97172.97
2022-12-14T10:57:26.658Z,97165.81
2022-12-14T10:58:30.304Z,97160.63
2022-12-14T10:59:47.965Z,97159.59
2022-12-14T11:01:06.647Z,97153.19
2022-12-14T11:02:19.380Z,97159.09
2022-12-14T11:03:26.555Z,97151.78
2022-12-14T11:04:39.254Z,97151.88
2022-12-14T11:06:01.921Z,97144.84
2022-12-14T11:07:11.486Z,97152.25
2022-12-14T11:08:48.346Z,97146.31
2022-12-14T11:09:56.356Z,97140.94
2022-12-14T11:11:19.181Z,97149.00
2022-12-14T11:12:29.994Z,97136.53
2022-12-14T11:13:35.995Z,97142.88
2022-12-14T11:14:53.492Z,97136.88
2022-12-14T11:16:33.640Z,97132.50
2022-12-14T11:17:47.225Z,97123.66
2022-12-14T11:19:00.106Z,97135.44
2022-12-14T11:20:24.465Z,97131.38
2022-12-14T11:21:38.204Z,97126.91
2022-12-14T11:22:49.210Z,97131.00
2022-12-14T11:23:58.464Z,97126.34
2022-12-14T11:25:04.501Z,97131.91
2022-12-14T11:26:17.843Z,97128.34
2022-12-14T11:27:25.146Z,97126.06
2022-12-14T11:28:37.724Z,97125.16
2022-12-14T11:29:51.080Z,97129.13
2022-12-14T11:31:06.019Z,97123.47
2022-12-14T11:32:25.951Z,97116.84
2022-12-14T11:33:43.296Z,97120.59
2022-12-14T11:35:00.387Z,97119.75
2022-12-14T11:36:07.543Z,97118.63
2022-12-14T11:37:26.543Z,97108.41
2022-12-14T11:38:34.311Z,97099.41
2022-12-14T11:39:45.349Z,97109.28
2022-12-14T11:40:55.718Z,97094.06
2022-12-14T11:42:07.036Z,97100.88
2022-12-14T11:43:30.211Z,97091.44
2022-12-14T11:44:40.202Z,97091.56
2022-12-14T11:45:55.117Z,97087.44
2022-12-14T11:47:10.007Z,97086.41
2022-12-14T11:48:26.107Z,97079.03
2022-12-14T11:49:46.426Z,97081.63
2022-12-14T11:50:56.408Z,97068.56
2022-12-14T11:52:12.253Z,97069.91
2022-12-14T11:53:21.730Z,97069.16
2022-12-14T11:54:30.870Z,97071.97
2022-12-14T11:55:43.535Z,97070.78
2022-12-14T11:56:54.401Z,97065.56
2022-12-14T11:58:02.904Z,97068.81
2022-12-14T11:59:09.166Z,97056.78
2022-12-14T12:00:28.742Z,97064.06
2022-12-14T12:01:35.178Z,97062.25
2022-12-14T12:02:51.912Z,97057.31
2022-12-14T12:04:01.851Z,97051.81
2022-12-14T12:05:18.993Z,97048.31
2022-12-14T12:06:28.684Z,97050.34
2022-12-14T12:07:39.486Z,97048.13
2022-12-14T12:08:47.897Z,97045.16
2022-12-14T12:09:51.583Z,97041.94
2022-12-14T12:11:02.373Z,97039.03
2022-12-14T12:12:18.245Z,97033.56
2022-12-14T12:13:33.137Z,97029.66
2022-12-14T12:14:42.914Z,97025.41
2022-12-14T12:15:57.557Z,97020.56
2022-12-14T12:17:05.602Z,97020.00
2022-12-14T12:18:24.332Z,97007.56
2022-12-14T12:19:40.583Z,97008.81
2022-12-14T12:21:00.148Z,97005.44
2022-12-14T12:22:13.584Z,96999.03
2022-12-14T12:23:29.154Z,97000.75
2022-12-14T12:25:16.273Z,96995.00
2022-12-14T12:26:22.851Z,97001.13
2022-12-14T12:27:32.529Z,97003.38
2022-12-14T12:28:50.404Z,96998.16
2022-12-14T12:30:07.994Z,96986.38
2022-12-14T12:31:29.375Z,96983.09
2022-12-14T12:32:50.257Z,96992.59
2022-12-14T12:34:05.711Z,96983.38
2022-12-14T12:35:24.193Z,96991.91
2022-12-14T12:36:36.534Z,96990.63
2022-12-14T12:37:51.951Z,96994.03
2022-12-14T12:39:09.633Z,96981.53
2022-12-14T12:40:20.171Z,96987.19
2022-12-14T12:41:41.209Z,96978.56
2022-12-14T12:42:57.363Z,96978.94
2022-12-14T12:44:24.257Z,96968.41
2022-12-14T12:45:41.152Z,96937.56
2022-12-14T12:47:25.564Z,96956.38
2022-12-14T12:48:42.811Z,96953.88
2022-12-14T12:49:48.925Z,96955.88
2022-12-14T12:51:05.032Z,96959.28
2022-12-14T12:52:27.259Z,96950.19
2022-12-14T12:53:41.978Z,96946.88
2022-12-14T12:55:04.292Z,96949.84
2022-12-14T12:56:18.707Z,96941.41
2022-12-14T12:57:29.443Z,96943.66
2022-12-14T12:58:37.427Z,96951.31
2022-12-14T12:59:53.462Z,96944.66
2022-12-14T13:01:05.584Z,96947.88
2022-12-14T13:02:31.499Z,96946.75
2022-12-14T13:03:46.031Z,96943.56
2022-12-14T13:04:56.915Z,96943.25
2022-12-14T13:06:18.931Z,96938.63
2022-12-14T13:07:39.670Z,96936.69
2022-12-14T13:08:51.745Z,96943.03
2022-12-14T13:10:06.511Z,96929.69
2022-12-14T13:11:26.752Z,96915.13
2022-12-14T13:12:42.150Z,96932.47
2022-12-14T13:13:55.733Z,96927.66
2022-12-14T13:15:08.166Z,96929.41
2022-12-14T13:16:27.470Z,96925.63
2022-12-14T13:17:47.166Z,96921.25
2022-12-14T13:19:25.308Z,96912.75
2022-12-14T13:20:36.755Z,96911.44
2022-12-14T13:21:50.073Z,96915.97
2022-12-14T13:23:15.230Z,96913.03
2022-12-14T13:24:27.493Z,96917.41
2022-12-14T13:25:55.036Z,96922.41
2022-12-14T13:27:34.945Z,96915.25
2022-12-14T13:29:04.822Z,96907.91
2022-12-14T13:30:35.609Z,96893.88
2022-12-14T13:31:58.840Z,96894.69
2022-12-14T13:33:55.198Z,96890.25
2022-12-14T13:35:26.162Z,96886.00
2022-12-14T13:37:05.345Z,96884.19
2022-12-14T13:38:48.742Z,96883.28
2022-12-14T13:40:42.099Z,96874.56
2022-12-14T13:42:05.071Z,96868.66
2022-12-14T13:43:37.378Z,96858.34
2022-12-14T13:45:01.967Z,96850.13
2022-12-14T13:46:19.897Z,96849.28
2022-12-14T13:47:36.004Z,96848.06
2022-12-14T13:48:45.009Z,96843.88
2022-12-14T13:51:37.871Z,96816.75
2022-12-14T13:52:50.932Z,96817.91
2022-12-14T13:54:03.675Z,96843.66
2022-12-14T13:55:30.753Z,96838.00
2022-12-14T13:56:42.223Z,96834.91
2022-12-14T13:57:46.651Z,96833.69
2022-12-14T13:59:00.545Z,96839.31
2022-12-14T14:00:08.050Z,96834.22
2022-12-14T14:01:39.908Z,96838.59
2022-12-14T14:02:55.879Z,96829.88
2022-12-14T14:04:25.967Z,96841.47
2022-12-14T14:05:48.780Z,96825.91
2022-12-14T14:06:56.445Z,96813.16
2022-12-14T14:08:06.372Z,96817.63
2022-12-14T14:10:04.447Z,96819.41
2022-12-14T14:12:04.866Z,96836.00
2022-12-14T14:13:55.396Z,96829.88
2022-12-14T14:15:31.822Z,96812.88
2022-12-14T14:16:46.058Z,96810.81
2022-12-14T14:17:58.536Z,96808.22
2022-12-14T14:19:22.930Z,96806.09